Time;durP1;ratioP1;P1;durP2;ratioP2;P2;SDS_P1;SDS_P2;PMS_P1;PMS_P2;Temp;Humidity;BMP_temperature;BMP_pressure;BME280_temperature;BME280_humidity;BME280_pressure;Samples;Min_cycle;Max_cycle;Signal;HPM_P1;HPM_P2
2022/03/23 00:02:13;;;;;;;57.95;37.47;;;10.50;99.90;;;;;;5093942;28;20047;-62
2022/03/23 00:04:39;;;;;;;55.97;37.00;;;10.40;99.90;;;;;;5093858;28;20097;-62
2022/03/23 00:07:05;;;;;;;55.80;38.10;;;10.40;99.90;;;;;;5093220;28;20040;-62
2022/03/23 00:09:30;;;;;;;59.95;38.60;;;10.30;99.90;;;;;;5093715;28;20040;-62
2022/03/23 00:11:56;;;;;;;57.75;37.60;;;10.30;99.90;;;;;;5093597;28;20044;-62
2022/03/23 00:14:21;;;;;;;57.25;36.92;;;10.20;99.90;;;;;;5093372;28;20040;-62
2022/03/23 00:16:47;;;;;;;59.15;38.85;;;10.20;99.90;;;;;;5093173;28;20371;-62
2022/03/23 00:19:13;;;;;;;56.42;38.05;;;10.10;99.90;;;;;;5093323;28;20036;-62
2022/03/23 00:21:41;;;;;;;58.40;39.30;;;10.10;99.90;;;;;;5093496;28;20040;-62
2022/03/23 00:24:07;;;;;;;59.13;36.97;;;10.00;99.90;;;;;;5093384;28;20118;-62
2022/03/23 00:26:32;;;;;;;57.72;37.20;;;10.00;99.90;;;;;;5075069;28;20133;-62
2022/03/23 00:28:58;;;;;;;58.30;37.92;;;9.90;99.90;;;;;;5092996;28;20048;-62
2022/03/23 00:31:24;;;;;;;56.60;38.17;;;9.90;99.90;;;;;;5093363;28;20032;-62
2022/03/23 00:33:51;;;;;;;54.42;37.60;;;9.80;99.90;;;;;;5093185;28;20482;-62
2022/03/23 00:36:17;;;;;;;61.17;36.75;;;9.80;99.90;;;;;;5092886;28;20378;-62
2022/03/23 00:38:44;;;;;;;58.78;36.72;;;9.70;99.90;;;;;;5093009;28;20116;-62
2022/03/23 00:41:10;;;;;;;58.50;38.10;;;9.70;99.90;;;;;;5093057;28;20443;-62
2022/03/23 00:43:35;;;;;;;63.72;37.47;;;9.60;99.90;;;;;;5092852;28;20036;-62
2022/03/23 00:46:02;;;;;;;56.78;37.47;;;9.60;99.90;;;;;;5092745;28;20094;-62
2022/03/23 00:48:28;;;;;;;58.15;39.25;;;9.60;99.90;;;;;;5093014;28;20428;-62
2022/03/23 00:50:53;;;;;;;59.67;39.55;;;9.50;99.90;;;;;;5092887;28;20058;-62
2022/03/23 00:53:19;;;;;;;59.55;37.53;;;9.50;99.90;;;;;;5092793;28;20469;-62
2022/03/23 00:55:45;;;;;;;58.53;38.53;;;9.50;99.90;;;;;;5092461;28;20036;-62
2022/03/23 00:58:10;;;;;;;62.33;39.15;;;9.40;99.90;;;;;;5092506;28;20631;-62
2022/03/23 01:00:36;;;;;;;60.72;39.33;;;9.40;99.90;;;;;;5092339;28;20053;-62
2022/03/23 01:03:02;;;;;;;59.80;38.70;;;9.40;99.90;;;;;;5092801;28;20075;-62
2022/03/23 01:05:29;;;;;;;62.03;39.75;;;9.40;99.90;;;;;;5092339;28;20040;-62
2022/03/23 01:07:54;;;;;;;66.47;39.75;;;9.30;99.90;;;;;;5092404;28;20524;-62
2022/03/23 01:10:21;;;;;;;57.42;37.60;;;9.30;99.90;;;;;;5092519;28;20036;-62
2022/03/23 01:12:47;;;;;;;57.28;37.63;;;9.30;99.90;;;;;;5092268;28;20043;-62
2022/03/23 01:15:16;;;;;;;60.53;40.35;;;9.20;99.90;;;;;;5074318;28;20036;-62
2022/03/23 01:17:42;;;;;;;59.83;38.72;;;9.20;99.90;;;;;;5091923;28;20051;-61
2022/03/23 01:20:10;;;;;;;65.40;42.28;;;9.20;99.90;;;;;;5092413;28;20043;-62
2022/03/23 01:22:37;;;;;;;68.82;42.33;;;9.10;99.90;;;;;;5092209;28;20424;-62
2022/03/23 01:25:08;;;;;;;62.47;41.85;;;9.00;99.90;;;;;;5092188;28;20047;-62
2022/03/23 01:27:35;;;;;;;64.90;39.22;;;9.10;99.90;;;;;;5091781;28;20678;-62
2022/03/23 01:30:01;;;;;;;62.92;41.15;;;9.00;99.90;;;;;;5092258;28;20040;-62
2022/03/23 01:32:29;;;;;;;62.03;41.25;;;9.00;99.90;;;;;;5092213;28;20055;-62
2022/03/23 01:34:55;;;;;;;65.22;40.92;;;9.00;99.90;;;;;;5092028;28;20127;-62
2022/03/23 01:37:20;;;;;;;63.05;41.35;;;8.90;99.90;;;;;;5091690;28;20119;-61
2022/03/23 01:39:46;;;;;;;66.88;41.42;;;9.00;99.90;;;;;;5091983;28;20470;-62
2022/03/23 01:42:11;;;;;;;65.10;40.00;;;9.00;99.90;;;;;;5092133;28;20077;-62
2022/03/23 01:44:37;;;;;;;65.78;43.08;;;8.90;99.90;;;;;;5092043;28;20402;-62
2022/03/23 01:47:09;;;;;;;70.85;42.90;;;8.90;99.90;;;;;;5091653;28;20409;-62
2022/03/23 01:49:40;;;;;;;63.58;41.22;;;8.90;99.90;;;;;;5091966;28;20091;-62
2022/03/23 01:52:08;;;;;;;64.00;40.33;;;8.90;99.90;;;;;;5091948;28;20040;-62
2022/03/23 01:54:35;;;;;;;67.72;44.85;;;8.80;99.90;;;;;;5091660;28;20123;-62
2022/03/23 01:57:03;;;;;;;74.35;46.20;;;8.80;99.90;;;;;;5091627;28;20047;-60
2022/03/23 01:59:29;;;;;;;70.90;42.85;;;8.80;99.90;;;;;;5091876;28;20039;-62
2022/03/23 02:01:55;;;;;;;65.85;43.30;;;8.80;99.90;;;;;;5091773;28;20047;-62
2022/03/23 02:04:21;;;;;;;67.28;43.22;;;8.70;99.90;;;;;;5091731;28;20036;-62
2022/03/23 02:06:48;;;;;;;66.82;41.40;;;8.70;99.90;;;;;;5091400;28;20044;-62
2022/03/23 02:09:18;;;;;;;65.70;41.42;;;8.70;99.90;;;;;;5091643;28;20032;-62
2022/03/23 02:11:44;;;;;;;69.30;43.70;;;8.70;99.90;;;;;;5093626;28;20040;-62
2022/03/23 02:14:09;;;;;;;69.45;43.03;;;8.70;99.90;;;;;;5095857;28;20049;-62
2022/03/23 02:16:42;;;;;;;69.85;43.88;;;8.60;99.90;;;;;;5095581;28;20517;-62
2022/03/23 02:19:08;;;;;;;64.63;40.65;;;8.60;99.90;;;;;;5095419;28;20043;-62
2022/03/23 02:21:34;;;;;;;71.07;42.97;;;8.60;99.90;;;;;;5095618;28;20036;-62
2022/03/23 02:24:05;;;;;;;70.68;44.38;;;8.60;99.90;;;;;;5095828;28;20058;-62
2022/03/23 02:26:32;;;;;;;67.68;43.03;;;8.50;99.90;;;;;;5095498;28;20072;-61
2022/03/23 02:29:00;;;;;;;62.33;39.83;;;8.50;99.90;;;;;;5095525;28;20085;-62
2022/03/23 02:31:26;;;;;;;71.20;44.47;;;8.50;99.90;;;;;;5095589;28;20044;-62
2022/03/23 02:33:52;;;;;;;70.75;45.42;;;8.50;99.90;;;;;;5095353;28;20450;-62
2022/03/23 02:36:17;;;;;;;69.00;44.25;;;8.50;99.90;;;;;;5095101;28;20036;-61
2022/03/23 02:38:43;;;;;;;71.28;43.78;;;8.40;99.90;;;;;;5095459;28;20036;-62
2022/03/23 02:41:09;;;;;;;64.45;42.08;;;8.40;99.90;;;;;;5095466;28;20040;-61
2022/03/23 02:43:35;;;;;;;64.68;42.17;;;8.30;99.90;;;;;;5095304;28;20077;-62
2022/03/23 02:46:02;;;;;;;71.20;42.40;;;8.30;99.90;;;;;;5094890;28;20464;-62
2022/03/23 02:48:28;;;;;;;64.38;42.00;;;8.30;99.90;;;;;;5095082;28;20123;-62
2022/03/23 02:50:53;;;;;;;63.33;41.78;;;8.20;99.90;;;;;;5095430;28;20115;-62
2022/03/23 03:02:12;;;;;;;69.65;44.17;;;8.00;99.90;;;;;;5074845;28;20098;-61
2022/03/23 03:04:38;;;;;;;66.45;42.50;;;8.00;99.90;;;;;;5074779;28;20123;-61
2022/03/23 03:07:04;;;;;;;68.28;44.35;;;8.00;99.90;;;;;;5074253;28;20037;-61
2022/03/23 03:09:29;;;;;;;64.18;41.40;;;8.00;99.90;;;;;;5074449;28;20487;-61
2022/03/23 03:11:55;;;;;;;65.97;42.00;;;8.00;99.90;;;;;;5074642;28;20044;-60
2022/03/23 03:14:20;;;;;;;66.40;44.33;;;8.00;99.90;;;;;;5074479;28;20051;-61
2022/03/23 03:16:46;;;;;;;68.95;43.70;;;7.90;99.90;;;;;;5074250;28;20033;-61
2022/03/23 03:19:12;;;;;;;67.93;43.35;;;7.90;99.90;;;;;;5074169;28;20037;-61
2022/03/23 03:21:38;;;;;;;67.55;42.63;;;7.80;99.90;;;;;;5074000;28;20032;-61
2022/03/23 03:24:05;;;;;;;64.20;41.80;;;7.80;99.90;;;;;;5074199;28;20040;-61
2022/03/23 03:26:31;;;;;;;71.53;44.10;;;7.80;99.90;;;;;;5073738;28;20055;-61
2022/03/23 03:28:57;;;;;;;68.03;44.67;;;7.80;99.90;;;;;;5074224;28;20044;-61
2022/03/23 03:31:23;;;;;;;66.82;43.83;;;7.80;99.90;;;;;;5074152;28;20032;-61
2022/03/23 03:33:49;;;;;;;61.13;40.72;;;7.70;99.90;;;;;;5074083;28;20417;-61
2022/03/23 03:36:15;;;;;;;69.30;45.00;;;7.70;99.90;;;;;;5073784;28;20035;-61
2022/03/23 03:38:41;;;;;;;67.13;43.50;;;7.60;99.90;;;;;;5073842;28;20485;-61
2022/03/23 03:41:07;;;;;;;67.38;42.40;;;7.60;99.90;;;;;;5074090;28;20041;-61
2022/03/23 03:43:33;;;;;;;73.75;43.08;;;7.60;99.90;;;;;;5073884;28;20508;-60
2022/03/23 03:45:59;;;;;;;71.50;44.90;;;7.60;99.90;;;;;;5073551;28;20032;-61
2022/03/23 03:48:25;;;;;;;68.95;43.28;;;7.60;99.90;;;;;;5073805;28;20124;-61
2022/03/23 03:50:51;;;;;;;68.40;43.38;;;7.60;99.90;;;;;;5073806;28;20112;-60
2022/03/23 03:53:17;;;;;;;68.75;43.60;;;7.50;99.90;;;;;;5073743;28;20075;-61
2022/03/23 03:55:43;;;;;;;72.20;44.35;;;7.50;99.90;;;;;;5073308;28;20036;-61
2022/03/23 03:58:11;;;;;;;64.15;42.65;;;7.50;99.90;;;;;;5073761;28;20036;-61
2022/03/23 04:00:37;;;;;;;69.00;43.53;;;7.50;99.90;;;;;;5073688;28;20039;-61
2022/03/23 04:03:03;;;;;;;72.50;42.90;;;7.40;99.90;;;;;;5073570;28;20112;-60
2022/03/23 04:05:29;;;;;;;69.40;43.33;;;7.40;99.90;;;;;;5073206;28;20556;-60
2022/03/23 04:07:56;;;;;;;66.95;42.45;;;7.40;99.90;;;;;;5073517;28;20041;-61
2022/03/23 04:10:22;;;;;;;66.13;43.17;;;7.30;99.90;;;;;;5073514;28;20028;-61
2022/03/23 04:12:48;;;;;;;66.22;42.95;;;7.30;99.90;;;;;;5073437;28;20436;-61
2022/03/23 04:15:14;;;;;;;67.78;44.08;;;7.30;99.90;;;;;;5073230;28;20120;-61
2022/03/23 04:17:40;;;;;;;63.53;42.88;;;7.30;99.90;;;;;;5072922;28;20051;-61
2022/03/23 04:20:06;;;;;;;68.82;43.65;;;7.30;99.90;;;;;;5073156;28;20032;-61
2022/03/23 04:22:32;;;;;;;72.72;44.78;;;7.20;99.90;;;;;;5072961;28;20687;-61
2022/03/23 04:24:57;;;;;;;71.75;43.85;;;7.20;99.90;;;;;;5073159;28;20136;-61
2022/03/23 04:27:23;;;;;;;68.35;44.10;;;7.20;99.90;;;;;;5072547;28;20036;-61
2022/03/23 04:29:49;;;;;;;72.20;43.60;;;7.20;99.90;;;;;;5073048;28;20044;-61
2022/03/23 04:32:14;;;;;;;68.32;43.75;;;7.20;99.90;;;;;;5072971;28;20111;-61
2022/03/23 04:34:40;;;;;;;67.00;44.05;;;7.20;99.90;;;;;;5072021;28;20407;-61
2022/03/23 04:37:05;;;;;;;74.25;45.75;;;7.10;99.90;;;;;;5072332;28;20040;-61
2022/03/23 04:39:31;;;;;;;78.65;45.85;;;7.20;99.90;;;;;;5072942;28;20035;-61
2022/03/23 04:41:58;;;;;;;71.97;43.58;;;7.10;99.90;;;;;;5072694;28;20033;-61
2022/03/23 04:44:23;;;;;;;69.55;43.50;;;7.10;99.90;;;;;;5072770;28;20044;-61
2022/03/23 04:46:49;;;;;;;72.82;47.38;;;7.10;99.90;;;;;;5072358;28;20051;-61
2022/03/23 04:49:14;;;;;;;72.90;47.03;;;7.10;99.90;;;;;;5072683;28;20523;-61
2022/03/23 04:51:40;;;;;;;69.65;42.22;;;7.00;99.90;;;;;;5072496;28;20066;-61
2022/03/23 04:54:06;;;;;;;72.20;44.35;;;7.00;99.90;;;;;;5072570;28;20089;-61
2022/03/23 04:56:31;;;;;;;79.40;46.22;;;7.00;99.90;;;;;;5072414;28;20158;-61
2022/03/23 04:58:57;;;;;;;72.80;45.30;;;7.00;99.90;;;;;;5072421;28;20047;-61
2022/03/23 05:01:23;;;;;;;72.95;44.63;;;7.00;99.90;;;;;;5072408;28;20066;-61
2022/03/23 05:03:49;;;;;;;69.43;44.17;;;7.00;99.90;;;;;;5072308;28;20181;-60
2022/03/23 05:06:14;;;;;;;73.93;45.53;;;6.90;99.90;;;;;;5071899;28;20051;-61
2022/03/23 05:08:40;;;;;;;72.55;45.35;;;6.90;99.90;;;;;;5072253;28;20040;-61
2022/03/23 05:11:06;;;;;;;71.88;44.13;;;6.90;99.90;;;;;;5072411;28;20056;-61
2022/03/23 05:13:33;;;;;;;74.75;45.55;;;6.90;99.90;;;;;;5072227;28;20049;-61
2022/03/23 05:15:59;;;;;;;71.78;44.90;;;6.80;99.90;;;;;;5071938;28;20719;-61
2022/03/23 05:18:25;;;;;;;65.18;44.17;;;6.80;99.90;;;;;;5071931;28;20146;-61
2022/03/23 05:20:50;;;;;;;72.20;43.53;;;6.80;99.90;;;;;;5071924;28;20050;-61
2022/03/23 05:23:16;;;;;;;72.07;45.10;;;6.80;99.90;;;;;;5072145;28;20067;-61
2022/03/23 05:25:42;;;;;;;72.68;44.03;;;6.70;99.90;;;;;;5071803;28;20038;-61
2022/03/23 05:28:08;;;;;;;70.18;43.38;;;6.70;99.90;;;;;;5072042;28;20048;-61
2022/03/23 05:30:34;;;;;;;66.50;43.33;;;6.80;99.90;;;;;;5071837;28;20393;-61
2022/03/23 05:33:01;;;;;;;76.85;45.92;;;6.70;99.90;;;;;;5071775;28;20040;-61
2022/03/23 05:35:27;;;;;;;69.65;44.10;;;6.70;99.90;;;;;;5071470;28;20047;-61
2022/03/23 05:37:54;;;;;;;70.03;44.38;;;6.70;99.90;;;;;;5071855;28;20043;-61
2022/03/23 05:40:21;;;;;;;69.45;44.17;;;6.70;99.90;;;;;;5071943;28;20040;-61
2022/03/23 05:42:47;;;;;;;73.10;45.08;;;6.80;99.90;;;;;;5071906;28;20037;-61
2022/03/23 05:45:13;;;;;;;77.88;45.15;;;6.80;99.90;;;;;;5071562;28;20127;-61
2022/03/23 05:47:40;;;;;;;72.40;44.95;;;6.70;99.90;;;;;;5071465;28;20477;-61
2022/03/23 05:50:07;;;;;;;72.88;45.10;;;6.80;99.90;;;;;;5071891;28;20048;-61
2022/03/23 05:52:33;;;;;;;75.18;47.70;;;6.80;99.90;;;;;;5071581;28;20053;-61
2022/03/23 05:54:58;;;;;;;75.28;45.97;;;6.70;99.90;;;;;;5071534;28;20048;-61
2022/03/23 05:57:24;;;;;;;76.97;46.63;;;6.70;99.90;;;;;;5071316;28;20041;-61
2022/03/23 05:59:50;;;;;;;79.55;48.88;;;6.80;99.90;;;;;;5071687;28;20040;-61
2022/03/23 06:02:16;;;;;;;75.95;46.58;;;6.80;99.90;;;;;;5071546;28;20627;-61
2022/03/23 06:04:41;;;;;;;73.38;48.22;;;6.80;99.90;;;;;;5071806;28;20045;-61
2022/03/23 06:07:07;;;;;;;78.40;46.80;;;6.80;99.90;;;;;;5071319;28;20128;-61
2022/03/23 06:09:32;;;;;;;75.90;47.25;;;6.80;99.90;;;;;;5071604;28;20036;-61
2022/03/23 06:11:58;;;;;;;74.88;47.45;;;6.90;99.90;;;;;;5071616;28;20094;-61
2022/03/23 06:14:23;;;;;;;75.40;47.63;;;7.00;99.90;;;;;;5071440;28;20040;-61
2022/03/23 06:16:50;;;;;;;80.13;48.70;;;7.00;99.90;;;;;;5070972;28;20066;-61
2022/03/23 06:19:15;;;;;;;80.90;52.30;;;7.00;99.90;;;;;;5071601;28;20043;-61
2022/03/23 06:21:41;;;;;;;83.05;51.10;;;7.10;99.90;;;;;;5071428;28;20456;-61
2022/03/23 06:24:07;;;;;;;74.57;50.13;;;7.10;99.90;;;;;;5071497;28;20417;-61
2022/03/23 06:26:33;;;;;;;84.15;53.00;;;7.20;99.90;;;;;;5071011;28;20041;-60
2022/03/23 06:28:58;;;;;;;81.07;48.88;;;7.20;99.90;;;;;;5071272;28;20044;-61
2022/03/23 06:31:24;;;;;;;82.05;52.92;;;7.30;99.90;;;;;;5071242;28;20405;-61
2022/03/23 06:33:49;;;;;;;83.70;52.30;;;7.50;99.90;;;;;;5071116;28;20041;-61
2022/03/23 06:36:15;;;;;;;84.80;50.85;;;7.60;99.90;;;;;;5071081;28;20037;-61
2022/03/23 06:38:41;;;;;;;74.05;48.28;;;7.70;99.90;;;;;;5071291;28;20036;-61
2022/03/23 06:41:07;;;;;;;80.72;50.42;;;7.90;99.90;;;;;;5071300;28;20040;-61
2022/03/23 06:43:33;;;;;;;82.85;51.13;;;8.10;99.90;;;;;;5071201;28;20070;-61
2022/03/23 06:46:00;;;;;;;83.68;50.90;;;8.30;99.90;;;;;;5070870;28;20036;-61
2022/03/23 06:48:25;;;;;;;85.30;49.95;;;8.50;99.90;;;;;;5070996;28;20070;-61
2022/03/23 06:50:51;;;;;;;77.13;49.45;;;8.70;99.90;;;;;;5071215;28;20490;-61
2022/03/23 06:53:16;;;;;;;72.13;49.55;;;8.90;99.90;;;;;;5071324;28;20405;-61
2022/03/23 06:55:42;;;;;;;73.38;45.92;;;9.20;99.90;;;;;;5070893;28;20071;-61
2022/03/23 06:58:07;;;;;;;74.22;46.85;;;9.40;99.90;;;;;;5073215;28;20458;-61
2022/03/23 07:00:33;;;;;;;74.32;47.05;;;9.60;99.90;;;;;;5074683;28;20063;-61
2022/03/23 07:02:59;;;;;;;76.70;47.88;;;9.80;99.90;;;;;;5074616;28;20081;-61
2022/03/23 07:05:25;;;;;;;71.90;44.45;;;10.00;99.90;;;;;;5074463;28;20039;-61
2022/03/23 07:10:35;;;;;;;63.38;39.42;;;10.30;99.90;;;;;;5074558;28;20052;-61
2022/03/23 07:13:01;;;;;;;62.20;40.40;;;10.60;99.90;;;;;;5074348;28;20041;-61
2022/03/23 07:15:26;;;;;;;57.38;38.60;;;10.70;99.90;;;;;;5074056;28;20754;-61
2022/03/23 07:17:52;;;;;;;59.40;38.47;;;10.80;99.90;;;;;;5074375;28;20063;-61
2022/03/23 07:20:18;;;;;;;59.63;39.42;;;11.00;98.20;;;;;;5074196;28;20043;-61
2022/03/23 07:22:43;;;;;;;55.95;36.70;;;11.10;96.70;;;;;;5074241;28;20112;-61
2022/03/23 07:25:10;;;;;;;55.25;37.80;;;11.30;95.30;;;;;;5074149;28;20044;-61
2022/03/23 07:27:36;;;;;;;54.47;34.78;;;11.30;94.00;;;;;;5073963;28;20135;-61
2022/03/23 07:30:02;;;;;;;52.72;34.67;;;11.50;91.60;;;;;;5074041;28;20489;-61
2022/03/23 07:32:28;;;;;;;60.55;36.47;;;11.60;90.70;;;;;;5074337;28;20505;-62
2022/03/23 07:34:53;;;;;;;55.05;35.58;;;11.70;89.10;;;;;;5074090;28;20047;-61
2022/03/23 07:37:19;;;;;;;46.10;32.65;;;11.90;86.80;;;;;;5073833;28;20040;-61
2022/03/23 07:39:44;;;;;;;47.53;31.85;;;12.00;84.60;;;;;;5074074;28;20035;-61
2022/03/23 07:42:11;;;;;;;44.15;30.55;;;12.30;83.30;;;;;;5073991;28;20040;-62
2022/03/23 07:44:36;;;;;;;50.55;31.30;;;12.50;81.90;;;;;;5074194;28;20413;-62
2022/03/23 07:47:07;;;;;;;50.70;32.10;;;12.60;79.30;;;;;;5073658;28;20048;-62
2022/03/23 07:49:32;;;;;;;45.90;28.45;;;12.80;77.00;;;;;;5077178;28;20041;-60
2022/03/23 07:52:02;;;;;;;43.22;29.42;;;12.90;74.10;;;;;;5091102;28;20039;-61
2022/03/23 07:54:27;;;;;;;44.80;29.38;;;13.00;71.70;;;;;;5093825;28;20047;-61
2022/03/23 07:56:53;;;;;;;41.80;29.95;;;13.20;70.30;;;;;;5093411;28;20040;-61
2022/03/23 07:59:18;;;;;;;43.65;31.10;;;13.40;69.10;;;;;;5092069;28;20501;-61
2022/03/23 08:01:44;;;;;;;44.13;29.42;;;13.40;68.40;;;;;;5083923;28;20035;-61
2022/03/23 08:04:10;;;;;;;44.90;29.20;;;13.40;66.90;;;;;;5082091;28;20037;-61
2022/03/23 08:06:36;;;;;;;43.47;28.23;;;13.50;66.30;;;;;;5084452;28;20097;-61
2022/03/23 08:09:05;;;;;;;39.03;25.88;;;13.60;64.80;;;;;;5092140;28;20044;-61
2022/03/23 08:11:31;;;;;;;41.03;27.70;;;13.70;64.20;;;;;;5093452;28;20088;-61
2022/03/23 08:13:56;;;;;;;40.20;26.90;;;13.80;63.60;;;;;;5092678;28;20048;-60
2022/03/23 08:16:23;;;;;;;40.33;26.95;;;14.10;62.90;;;;;;5090615;28;20063;-61
2022/03/23 08:18:48;;;;;;;41.20;26.33;;;14.20;62.50;;;;;;5084757;28;20055;-61
2022/03/23 08:21:16;;;;;;;39.50;28.38;;;14.50;61.70;;;;;;5093532;28;20494;-61
2022/03/23 08:23:41;;;;;;;43.35;26.33;;;14.50;60.60;;;;;;5093424;28;20036;-61
2022/03/23 08:26:09;;;;;;;37.25;26.00;;;14.70;60.50;;;;;;5092946;28;20100;-61
2022/03/23 08:28:35;;;;;;;34.88;25.23;;;14.80;57.00;;;;;;5093422;28;20048;-61
2022/03/23 08:31:01;;;;;;;41.03;27.52;;;14.90;57.00;;;;;;5093364;28;20044;-61
2022/03/23 08:33:29;;;;;;;43.05;26.70;;;14.90;57.10;;;;;;5093133;28;20481;-61
2022/03/23 08:35:55;;;;;;;49.03;27.40;;;15.20;58.10;;;;;;5092949;28;20398;-61
2022/03/23 08:38:20;;;;;;;34.72;25.27;;;15.30;57.90;;;;;;5093054;28;20093;-61
2022/03/23 08:40:46;;;;;;;38.95;26.40;;;15.40;56.70;;;;;;5092904;28;20032;-62
2022/03/23 08:43:11;;;;;;;41.30;24.95;;;15.50;56.10;;;;;;5093183;28;20111;-61
2022/03/23 08:45:37;;;;;;;39.70;28.02;;;15.50;56.20;;;;;;5092819;28;20480;-61
2022/03/23 08:48:03;;;;;;;39.67;26.65;;;15.70;56.10;;;;;;5092846;28;20028;-61
2022/03/23 08:50:29;;;;;;;35.45;26.50;;;15.70;55.40;;;;;;5092929;28;20101;-61
2022/03/23 08:52:55;;;;;;;35.22;25.80;;;15.80;55.30;;;;;;5086841;28;20551;-61
2022/03/23 08:55:23;;;;;;;37.08;25.73;;;15.90;54.20;;;;;;5080734;28;20120;-61
2022/03/23 08:57:49;;;;;;;37.65;25.88;;;16.00;54.70;;;;;;5092802;28;20100;-61
2022/03/23 09:00:15;;;;;;;39.72;25.50;;;16.20;53.50;;;;;;5092729;28;20036;-61
2022/03/23 09:02:41;;;;;;;36.35;25.10;;;16.20;53.20;;;;;;5092718;28;20089;-61
2022/03/23 09:05:10;;;;;;;38.58;25.48;;;16.30;52.40;;;;;;5092600;28;20036;-61
2022/03/23 09:07:37;;;;;;;30.20;24.17;;;16.30;52.40;;;;;;5092211;28;20079;-61
2022/03/23 09:10:04;;;;;;;37.13;25.45;;;16.40;52.20;;;;;;5092470;28;20072;-61
2022/03/23 09:12:29;;;;;;;32.67;23.25;;;16.40;50.70;;;;;;5092287;28;20489;-61
2022/03/23 09:14:55;;;;;;;30.90;21.92;;;16.30;49.50;;;;;;5083771;28;20043;-61
2022/03/23 09:17:22;;;;;;;30.90;23.35;;;16.20;47.30;;;;;;5091996;28;20038;-61
2022/03/23 09:19:48;;;;;;;30.88;23.13;;;16.00;46.80;;;;;;5092026;28;20079;-61
2022/03/23 09:22:13;;;;;;;30.05;20.85;;;16.00;47.40;;;;;;5092315;28;20113;-61
2022/03/23 09:24:39;;;;;;;27.10;21.75;;;16.00;47.20;;;;;;5088684;28;20044;-63
2022/03/23 09:27:04;;;;;;;31.15;21.80;;;15.90;45.90;;;;;;5084128;28;20036;-61
2022/03/23 09:29:30;;;;;;;25.85;20.30;;;16.10;46.10;;;;;;5088614;28;20044;-61
2022/03/23 09:31:56;;;;;;;28.45;20.80;;;16.10;44.00;;;;;;5091887;28;20115;-61
2022/03/23 09:34:21;;;;;;;31.60;21.08;;;16.00;43.70;;;;;;5091741;28;20071;-61
2022/03/23 09:39:31;;;;;;;26.75;19.58;;;16.10;43.10;;;;;;5092030;28;20044;-61
2022/03/23 09:41:58;;;;;;;29.05;19.77;;;16.20;42.40;;;;;;5091866;28;20478;-60
2022/03/23 09:44:27;;;;;;;25.35;18.92;;;16.10;41.90;;;;;;5091588;28;20071;-61
2022/03/23 09:46:53;;;;;;;29.23;18.45;;;16.10;40.10;;;;;;5091216;28;20386;-61
2022/03/23 09:49:18;;;;;;;23.00;18.73;;;16.10;40.40;;;;;;5091647;28;20084;-61
2022/03/23 09:51:46;;;;;;;25.35;17.55;;;16.00;40.10;;;;;;5091529;28;20086;-61
2022/03/23 09:54:12;;;;;;;25.85;18.33;;;16.00;39.00;;;;;;5091470;28;20570;-61
2022/03/23 09:56:37;;;;;;;25.08;17.38;;;15.90;38.20;;;;;;5091413;28;20032;-61
2022/03/23 09:59:04;;;;;;;21.40;16.92;;;15.90;37.70;;;;;;5091429;28;20161;-61
2022/03/23 10:01:30;;;;;;;23.45;18.05;;;15.80;38.40;;;;;;5089602;28;20033;-61
2022/03/23 10:04:18;;;;;;;25.75;18.00;;;15.90;39.00;;;;;;5089879;28;20545;-61
2022/03/23 10:07:21;;;;;;;24.70;18.58;;;16.10;39.40;;;;;;5090300;28;20040;-61
2022/03/23 10:10:05;;;;;;;27.90;18.85;;;16.10;39.40;;;;;;5091575;28;20047;-61
2022/03/23 10:13:15;;;;;;;24.95;18.38;;;16.10;39.50;;;;;;5091331;28;20072;-61
2022/03/23 10:16:18;;;;;;;26.20;17.92;;;16.20;39.30;;;;;;5073178;28;20040;-62
2022/03/23 10:18:54;;;;;;;25.63;18.52;;;16.20;39.30;;;;;;5091213;28;20047;-61
2022/03/23 10:21:23;;;;;;;23.50;16.90;;;16.30;38.90;;;;;;5088362;28;20044;-61
2022/03/23 10:24:15;;;;;;;23.33;17.50;;;16.30;39.40;;;;;;5091521;28;20032;-61
2022/03/23 10:26:42;;;;;;;24.77;17.58;;;16.50;37.60;;;;;;5090884;28;20115;-61
2022/03/23 10:29:19;;;;;;;20.85;14.88;;;16.50;37.90;;;;;;5091067;28;20489;-61
2022/03/23 10:31:45;;;;;;;21.67;16.63;;;16.50;37.60;;;;;;5091570;28;20040;-61
2022/03/23 10:34:11;;;;;;;21.52;16.42;;;16.50;37.60;;;;;;5095250;28;20044;-61
2022/03/23 10:36:39;;;;;;;21.58;15.75;;;16.50;36.80;;;;;;5094962;28;20119;-61
2022/03/23 10:39:10;;;;;;;18.70;15.07;;;16.50;36.00;;;;;;5095177;28;20032;-61
2022/03/23 10:41:36;;;;;;;23.73;16.08;;;16.50;35.20;;;;;;5095043;28;20409;-61
2022/03/23 10:44:02;;;;;;;23.20;15.50;;;16.50;35.90;;;;;;5088648;28;20083;-61
2022/03/23 10:46:28;;;;;;;24.67;15.73;;;16.50;35.50;;;;;;5094809;28;20466;-61
2022/03/23 10:49:02;;;;;;;25.63;16.67;;;16.50;36.00;;;;;;5095016;28;20040;-61
2022/03/23 10:51:30;;;;;;;32.83;17.63;;;16.50;35.70;;;;;;5095044;28;20047;-62
2022/03/23 10:53:56;;;;;;;17.83;14.32;;;16.50;36.10;;;;;;5088267;28;20040;-62
2022/03/23 10:56:34;;;;;;;20.85;15.30;;;16.60;35.90;;;;;;5094338;28;20489;-62
2022/03/23 10:59:22;;;;;;;27.85;16.92;;;16.60;35.50;;;;;;5076374;28;20417;-61
2022/03/23 11:02:08;;;;;;;22.27;14.20;;;16.60;35.50;;;;;;5094563;28;20397;-61
2022/03/23 11:04:56;;;;;;;24.70;14.93;;;16.70;35.80;;;;;;5094547;28;20040;-61
2022/03/23 11:07:30;;;;;;;23.17;14.40;;;16.80;36.00;;;;;;5094099;28;20550;-61
2022/03/23 11:15:48;;;;;;;21.48;13.35;;;16.80;36.00;;;;;;5094344;28;20463;-61
2022/03/23 11:18:17;;;;;;;18.17;12.73;;;16.80;35.90;;;;;;5094352;28;20520;-61
2022/03/23 11:20:44;;;;;;;24.60;15.57;;;16.80;35.90;;;;;;5090517;28;20058;-61
2022/03/23 11:23:24;;;;;;;21.70;16.08;;;16.80;36.10;;;;;;5094062;28;20079;-61
2022/03/23 11:25:59;;;;;;;25.27;16.60;;;16.80;35.70;;;;;;5094207;28;20054;-61
2022/03/23 11:28:26;;;;;;;20.92;15.60;;;16.80;35.80;;;;;;5094256;28;20040;-60
2022/03/23 11:30:52;;;;;;;19.67;14.48;;;16.90;36.10;;;;;;5090991;28;20028;-61
2022/03/23 11:33:21;;;;;;;26.85;15.98;;;16.80;35.90;;;;;;5091348;28;20039;-61
2022/03/23 11:35:48;;;;;;;24.00;14.32;;;16.80;36.30;;;;;;5093547;28;20036;-61
2022/03/23 11:38:17;;;;;;;21.35;13.98;;;16.80;36.00;;;;;;5093927;28;20032;-60
2022/03/23 11:40:44;;;;;;;26.77;14.35;;;16.80;35.80;;;;;;5093285;28;20040;-61
2022/03/23 11:43:15;;;;;;;21.40;13.93;;;16.90;35.70;;;;;;5093830;28;20074;-61
2022/03/23 11:45:43;;;;;;;23.95;14.27;;;17.00;36.20;;;;;;5093659;28;20036;-61
2022/03/23 11:48:18;;;;;;;19.45;12.10;;;17.10;35.80;;;;;;5089908;28;20072;-61
2022/03/23 11:51:08;;;;;;;23.02;12.57;;;17.10;35.60;;;;;;5089998;28;20043;-61
2022/03/23 11:53:40;;;;;;;24.52;12.13;;;17.10;34.90;;;;;;5093687;28;20047;-61
2022/03/23 11:56:08;;;;;;;20.13;13.15;;;17.00;35.60;;;;;;5093401;28;20401;-61
2022/03/23 11:58:37;;;;;;;18.00;11.65;;;17.00;36.00;;;;;;5093620;28;20417;-61
2022/03/23 12:01:10;;;;;;;19.05;11.73;;;17.10;35.50;;;;;;5093839;28;20054;-61
2022/03/23 12:03:44;;;;;;;27.17;10.75;;;17.00;35.20;;;;;;5093694;28;20036;-61
2022/03/23 12:06:21;;;;;;;23.73;11.25;;;17.00;34.90;;;;;;5093155;28;20402;-61
2022/03/23 12:08:59;;;;;;;19.95;10.85;;;17.10;35.30;;;;;;5093469;28;20051;-61
2022/03/23 12:11:38;;;;;;;19.15;10.93;;;17.10;35.40;;;;;;5093157;28;20648;-61
2022/03/23 12:14:06;;;;;;;24.50;9.77;;;17.20;34.60;;;;;;5075167;28;20067;-61
2022/03/23 12:17:02;;;;;;;31.73;10.20;;;17.20;35.30;;;;;;5092799;28;20047;-61
2022/03/23 12:19:32;;;;;;;19.45;9.18;;;17.20;33.70;;;;;;5088866;28;20033;-61
2022/03/23 12:21:58;;;;;;;22.05;9.10;;;17.20;34.70;;;;;;5093439;28;20114;-61
2022/03/23 12:24:54;;;;;;;21.70;10.10;;;17.10;34.50;;;;;;5093315;28;20119;-61
2022/03/23 12:27:38;;;;;;;23.05;9.05;;;17.20;34.40;;;;;;5092861;28;20398;-61
2022/03/23 12:30:28;;;;;;;20.92;10.95;;;17.20;34.90;;;;;;5092650;28;20044;-61
2022/03/23 12:32:56;;;;;;;23.88;11.27;;;17.30;35.00;;;;;;5039451;28;20044;-61
2022/03/23 12:35:33;;;;;;;20.35;10.60;;;17.40;35.10;;;;;;5092295;28;20083;-61
2022/03/23 12:37:59;;;;;;;16.10;10.32;;;17.40;36.30;;;;;;5092887;28;20084;-61
2022/03/23 12:40:42;;;;;;;26.42;11.23;;;17.40;35.70;;;;;;5092945;28;20115;-61
2022/03/23 12:43:08;;;;;;;20.52;10.38;;;17.40;35.40;;;;;;5092823;28;20493;-61
2022/03/23 12:45:39;;;;;;;20.73;9.70;;;17.40;35.60;;;;;;5092428;28;20541;-61
2022/03/23 12:59:21;;;;;;;17.55;11.27;;;17.40;35.40;;;;;;5092544;28;20040;-61
2022/03/23 13:01:54;;;;;;;26.63;11.50;;;17.40;35.40;;;;;;5092394;28;20497;-62
2022/03/23 13:04:40;;;;;;;21.45;9.80;;;17.40;35.40;;;;;;5092544;28;20252;-62
2022/03/23 13:07:28;;;;;;;22.35;10.40;;;17.60;35.00;;;;;;5092040;28;20048;-62
2022/03/23 13:10:04;;;;;;;23.90;11.25;;;17.60;35.30;;;;;;5076824;28;20506;-61